createdAt,value
2023-09-16T00:03:03.460Z,13.00
2023-09-16T00:07:32.612Z,5.60
2023-09-16T00:12:01.751Z,5.50
2023-09-16T00:16:31.245Z,5.50
2023-09-16T00:21:00.694Z,11.50
2023-09-16T00:25:32.806Z,6.40
2023-09-16T00:29:44.860Z,5.50
2023-09-16T00:34:14.389Z,5.40
2023-09-16T00:38:35.982Z,5.20
2023-09-16T00:42:49.296Z,5.50
2023-09-16T00:47:18.694Z,5.60
2023-09-16T00:51:48.971Z,5.30
2023-09-16T00:56:19.139Z,16.90
2023-09-16T01:00:48.792Z,6.00
2023-09-16T01:05:21.677Z,5.30
2023-09-16T01:09:51.469Z,5.60
2023-09-16T01:14:20.984Z,5.10
2023-09-16T01:19:08.612Z,5.20
2023-09-16T01:23:37.978Z,5.50
2023-09-16T01:28:07.350Z,5.20
2023-09-16T01:32:37.048Z,5.00
2023-09-16T01:37:06.554Z,5.50
2023-09-16T01:41:36.677Z,5.50
2023-09-16T01:46:06.707Z,5.90
2023-09-16T01:50:36.191Z,5.50
2023-09-16T01:55:06.585Z,5.20
2023-09-16T01:59:37.467Z,5.80
2023-09-16T02:04:07.009Z,6.10
2023-09-16T02:08:36.431Z,6.30
2023-09-16T02:13:05.989Z,5.20
2023-09-16T02:17:37.076Z,6.10
2023-09-16T02:22:07.279Z,5.90
2023-09-16T02:26:41.564Z,6.20
2023-09-16T02:31:12.673Z,6.30
2023-09-16T02:35:42.032Z,6.10
2023-09-16T02:40:11.653Z,6.10
2023-09-16T02:44:41.246Z,5.70
2023-09-16T02:49:10.506Z,6.30
2023-09-16T02:53:39.871Z,6.50
2023-09-16T02:58:09.883Z,5.80
2023-09-16T03:02:39.000Z,6.10
2023-09-16T03:07:08.566Z,6.10
2023-09-16T03:11:38.355Z,6.00
2023-09-16T03:16:08.121Z,6.00
2023-09-16T03:20:38.002Z,5.80
2023-09-16T03:28:35.269Z,5.80
2023-09-16T03:33:10.831Z,6.00
2023-09-16T03:37:40.104Z,6.30
2023-09-16T03:42:10.075Z,6.00
2023-09-16T03:46:40.244Z,6.40
2023-09-16T03:51:09.864Z,6.10
2023-09-16T03:55:39.120Z,6.60
2023-09-16T04:00:08.421Z,6.50
2023-09-16T04:04:38.343Z,6.20
2023-09-16T04:09:08.592Z,6.60
2023-09-16T04:13:38.601Z,6.50
2023-09-16T04:18:08.070Z,6.70
2023-09-16T04:29:06.887Z,5.80
2023-09-16T04:31:52.967Z,6.90
2023-09-16T04:34:48.467Z,6.60
2023-09-16T04:37:43.909Z,6.80
2023-09-16T04:41:15.273Z,7.40
2023-09-16T04:44:54.668Z,6.70
2023-09-16T04:48:34.968Z,6.40
2023-09-16T04:51:50.390Z,8.90
2023-09-16T04:54:45.721Z,6.40
2023-09-16T04:57:22.873Z,6.80
2023-09-16T05:00:28.858Z,6.80
2023-09-16T05:03:32.024Z,6.90
2023-09-16T05:06:34.723Z,6.70
2023-09-16T05:09:17.119Z,6.70
2023-09-16T05:12:03.520Z,7.60
2023-09-16T05:14:48.124Z,7.00
2023-09-16T05:17:22.820Z,6.50
2023-09-16T05:20:33.436Z,6.50
2023-09-16T05:23:08.614Z,6.70
2023-09-16T05:26:15.816Z,6.60
2023-09-16T05:30:03.721Z,6.90
2023-09-16T05:33:32.430Z,6.90
2023-09-16T05:37:12.452Z,6.00
2023-09-16T05:40:04.298Z,6.10
2023-09-16T05:42:53.961Z,6.50
2023-09-16T05:45:33.063Z,6.30
2023-09-16T05:48:25.494Z,6.40
2023-09-16T05:51:06.449Z,6.00
2023-09-16T05:53:37.313Z,6.20
2023-09-16T05:56:30.270Z,6.40
2023-09-16T05:59:17.638Z,6.70
2023-09-16T06:02:24.500Z,5.90
2023-09-16T06:04:53.401Z,5.90
2023-09-16T06:07:27.293Z,7.70
2023-09-16T06:10:03.338Z,6.50
2023-09-16T06:12:35.303Z,5.90
2023-09-16T06:15:10.660Z,5.80
2023-09-16T06:17:44.683Z,5.80
2023-09-16T06:20:26.239Z,6.00
2023-09-16T06:23:03.482Z,5.80
2023-09-16T06:25:35.168Z,7.40
2023-09-16T06:28:18.346Z,5.30
2023-09-16T06:30:50.880Z,9.00
2023-09-16T06:33:56.654Z,5.80
2023-09-16T06:36:39.990Z,5.70
2023-09-16T06:39:47.830Z,5.90
2023-09-16T06:43:04.115Z,5.40
2023-09-16T06:46:06.206Z,5.20
2023-09-16T06:49:19.032Z,5.00
2023-09-16T06:52:48.184Z,5.10
2023-09-16T06:55:45.787Z,5.20
2023-09-16T06:59:20.169Z,5.40
2023-09-16T07:02:17.277Z,4.90
2023-09-16T07:05:16.644Z,5.30
2023-09-16T07:08:01.330Z,4.40
2023-09-16T07:11:19.174Z,4.50
2023-09-16T07:13:55.071Z,4.60
2023-09-16T07:16:42.057Z,4.30
2023-09-16T07:19:27.539Z,4.60
2023-09-16T07:22:18.976Z,4.20
2023-09-16T07:26:08.383Z,4.70
2023-09-16T07:29:57.685Z,3.90
2023-09-16T07:33:47.058Z,4.40
2023-09-16T07:37:36.543Z,4.00
2023-09-16T07:41:28.499Z,5.50
2023-09-16T07:44:48.597Z,3.80
2023-09-16T07:48:15.846Z,3.50
2023-09-16T07:51:40.712Z,3.70
2023-09-16T07:54:49.401Z,3.10
2023-09-16T07:57:55.586Z,3.90
2023-09-16T08:00:32.671Z,4.00
2023-09-16T08:03:09.789Z,3.60
2023-09-16T08:06:50.317Z,4.30
2023-09-16T08:10:32.200Z,3.60
2023-09-16T08:14:21.852Z,4.60
2023-09-16T08:18:11.956Z,3.80
2023-09-16T08:22:01.758Z,4.70
2023-09-16T08:25:52.435Z,4.20
2023-09-16T08:29:42.994Z,4.00
2023-09-16T08:33:32.369Z,3.90
2023-09-16T08:37:09.864Z,9.40
2023-09-16T08:40:55.803Z,4.50
2023-09-16T08:44:43.818Z,4.30
2023-09-16T08:48:38.526Z,4.00
2023-09-16T08:52:20.345Z,4.00
2023-09-16T08:55:54.015Z,3.20
2023-09-16T08:58:40.402Z,3.80
2023-09-16T09:01:54.165Z,3.60
2023-09-16T09:04:58.544Z,3.00
2023-09-16T09:07:38.980Z,3.60
2023-09-16T09:10:26.706Z,3.80
2023-09-16T09:12:59.083Z,4.60
2023-09-16T09:15:51.587Z,5.20
2023-09-16T09:18:40.867Z,3.10
2023-09-16T09:22:07.394Z,3.60
2023-09-16T09:25:59.568Z,4.20
2023-09-16T09:29:48.910Z,3.90
2023-09-16T09:33:32.232Z,3.20
2023-09-16T09:37:20.269Z,3.20
2023-09-16T09:41:25.928Z,3.50
2023-09-16T09:45:17.992Z,2.80
2023-09-16T09:48:59.668Z,4.60
2023-09-16T09:52:48.955Z,2.90
2023-09-16T09:56:32.985Z,3.10
2023-09-16T10:00:31.607Z,3.00
2023-09-16T10:04:22.007Z,2.80
2023-09-16T10:08:14.301Z,2.80
2023-09-16T10:12:04.294Z,2.80
2023-09-16T10:15:56.015Z,3.20
2023-09-16T10:19:37.200Z,3.30
2023-09-16T10:23:27.006Z,3.20
2023-09-16T10:27:16.605Z,3.60
2023-09-16T10:31:07.122Z,3.30
2023-09-16T10:39:03.408Z,2.60
2023-09-16T10:42:51.876Z,2.50
2023-09-16T10:46:42.356Z,3.10
2023-09-16T10:50:48.948Z,2.90
2023-09-16T10:54:37.449Z,2.90
2023-09-16T10:59:10.763Z,2.90
2023-09-16T11:03:02.973Z,2.90
2023-09-16T11:06:51.866Z,2.80
2023-09-16T11:10:42.732Z,3.30
2023-09-16T11:14:48.880Z,3.30
2023-09-16T11:18:24.238Z,2.80
2023-09-16T11:22:11.863Z,4.90
2023-09-16T11:26:11.953Z,3.30
2023-09-16T11:30:05.260Z,3.10
2023-09-16T11:33:49.833Z,3.30
2023-09-16T11:37:28.945Z,3.00
2023-09-16T11:41:16.688Z,3.40
2023-09-16T11:45:05.952Z,2.90
2023-09-16T11:48:56.738Z,3.10
2023-09-16T11:52:45.616Z,2.90
2023-09-16T11:56:56.497Z,3.10
2023-09-16T12:00:44.922Z,3.00
2023-09-16T12:04:35.882Z,3.20
2023-09-16T12:08:17.714Z,3.00
2023-09-16T12:12:07.134Z,2.90
2023-09-16T12:16:08.928Z,3.00
2023-09-16T12:19:57.746Z,3.00
2023-09-16T12:23:46.339Z,3.20
2023-09-16T12:27:35.990Z,3.10
2023-09-16T12:31:24.766Z,3.00
2023-09-16T12:35:15.973Z,3.20
2023-09-16T12:39:04.679Z,3.70
2023-09-16T12:42:53.293Z,3.70
2023-09-16T12:47:02.812Z,3.40
2023-09-16T12:50:56.057Z,3.30
2023-09-16T12:55:03.948Z,3.30
2023-09-16T12:58:53.108Z,3.00
2023-09-16T13:02:45.184Z,2.90
2023-09-16T13:06:34.213Z,2.80
2023-09-16T13:10:44.326Z,3.00
2023-09-16T13:14:53.546Z,2.80
2023-09-16T13:19:21.412Z,3.50
2023-09-16T13:23:29.160Z,3.20
2023-09-16T13:27:18.558Z,3.20
2023-09-16T13:31:15.503Z,2.90
2023-09-16T13:35:43.772Z,3.20
2023-09-16T13:39:53.715Z,3.10
2023-09-16T13:44:09.524Z,3.00
2023-09-16T13:48:02.190Z,3.00
2023-09-16T13:51:52.612Z,3.30
2023-09-16T13:56:01.012Z,3.00
2023-09-16T14:00:07.205Z,3.10
2023-09-16T14:04:03.171Z,3.10
2023-09-16T14:07:52.832Z,2.80
2023-09-16T14:11:34.886Z,3.00
2023-09-16T14:15:44.008Z,3.10
2023-09-16T14:19:34.309Z,3.40
2023-09-16T14:23:22.699Z,3.60
2023-09-16T14:27:15.090Z,3.30
2023-09-16T14:31:23.892Z,3.40
2023-09-16T14:35:12.452Z,3.90
2023-09-16T14:39:00.755Z,3.70
2023-09-16T14:42:40.273Z,5.90
2023-09-16T14:46:38.523Z,3.70
2023-09-16T14:56:06.074Z,3.70
2023-09-16T14:59:55.268Z,3.80
2023-09-16T15:03:43.897Z,3.80
2023-09-16T15:07:32.177Z,4.10
2023-09-16T15:11:23.047Z,4.20
2023-09-16T15:15:05.871Z,4.80
2023-09-16T15:18:45.543Z,4.20
2023-09-16T15:22:59.317Z,4.30
2023-09-16T15:26:13.907Z,4.40
2023-09-16T15:30:14.241Z,4.50
2023-09-16T15:33:59.512Z,4.50
2023-09-16T15:37:49.356Z,4.20
2023-09-16T15:41:40.669Z,4.90
2023-09-16T15:45:28.626Z,5.00
2023-09-16T15:49:37.272Z,5.20
2023-09-16T15:53:26.209Z,6.50
2023-09-16T15:57:18.658Z,11.70
2023-09-16T16:01:08.019Z,4.70
2023-09-16T16:04:56.679Z,5.20
2023-09-16T16:08:49.411Z,6.70
2023-09-16T16:12:58.686Z,17.40
2023-09-16T16:16:59.174Z,15.30
2023-09-16T16:20:56.317Z,37.70
2023-09-16T16:25:12.973Z,14.10
2023-09-16T16:29:23.379Z,16.60
2023-09-16T16:33:14.471Z,30.60
2023-09-16T16:37:38.014Z,13.70
2023-09-16T16:41:27.201Z,11.80
2023-09-16T16:45:05.796Z,10.60
2023-09-16T16:49:18.380Z,11.90
2023-09-16T16:53:12.343Z,15.80
2023-09-16T16:57:22.179Z,9.70
2023-09-16T17:01:12.942Z,12.60
2023-09-16T17:05:05.594Z,14.00
2023-09-16T17:09:12.652Z,13.50
2023-09-16T17:13:20.986Z,31.20
2023-09-16T17:17:09.133Z,19.30
2023-09-16T17:21:06.197Z,18.80
2023-09-16T17:25:19.710Z,20.10
2023-09-16T17:29:34.180Z,20.90
2023-09-16T17:33:27.751Z,15.80
2023-09-16T17:37:25.741Z,18.50
2023-09-16T17:41:13.788Z,17.60
2023-09-16T17:45:23.220Z,15.90
2023-09-16T17:49:42.927Z,14.60
2023-09-16T17:53:52.803Z,17.80
2023-09-16T17:58:01.224Z,23.00
2023-09-16T18:01:51.987Z,19.00
2023-09-16T18:05:35.398Z,22.50
2023-09-16T18:09:28.794Z,29.40
2023-09-16T18:13:16.884Z,20.70
2023-09-16T18:16:56.476Z,27.00
2023-09-16T18:20:45.157Z,23.10
2023-09-16T18:24:36.276Z,18.10
2023-09-16T18:28:26.815Z,25.40
2023-09-16T18:32:36.614Z,23.60
2023-09-16T18:36:43.634Z,28.80
2023-09-16T18:40:25.859Z,28.90
2023-09-16T18:44:16.226Z,22.90
2023-09-16T18:48:05.683Z,16.10
2023-09-16T18:51:51.903Z,16.10
2023-09-16T18:55:41.175Z,16.30
2023-09-16T18:59:29.866Z,18.80
2023-09-16T19:03:18.114Z,20.30
2023-09-16T19:07:07.444Z,15.00
2023-09-16T19:10:57.210Z,19.00
2023-09-16T19:14:45.631Z,18.60
2023-09-16T19:18:26.146Z,16.80
2023-09-16T19:22:15.116Z,17.60
2023-09-16T19:26:04.344Z,17.80
2023-09-16T19:29:44.794Z,15.40
2023-09-16T19:33:42.719Z,35.50
2023-09-16T19:37:20.477Z,16.10
2023-09-16T19:41:09.959Z,18.90
2023-09-16T19:45:24.149Z,17.90
2023-09-16T19:48:46.468Z,17.60
2023-09-16T19:56:30.433Z,15.50
2023-09-16T19:59:54.959Z,16.00
2023-09-16T20:03:12.748Z,13.60
2023-09-16T20:07:08.420Z,13.60
2023-09-16T20:10:49.784Z,13.60
2023-09-16T20:14:33.931Z,20.30
2023-09-16T20:18:27.268Z,17.60
2023-09-16T20:22:18.015Z,13.60
2023-09-16T20:26:16.205Z,12.50
2023-09-16T20:29:58.668Z,12.90
2023-09-16T20:33:32.115Z,13.90
2023-09-16T20:37:22.989Z,13.70
2023-09-16T20:45:19.726Z,28.80
2023-09-16T20:48:53.869Z,17.90
2023-09-16T20:52:28.340Z,24.50
2023-09-16T20:56:17.123Z,20.90
2023-09-16T20:59:36.834Z,18.70
2023-09-16T21:03:29.851Z,17.70
2023-09-16T21:07:48.883Z,23.20
2023-09-16T21:11:18.893Z,19.30
2023-09-16T21:15:00.334Z,20.60
2023-09-16T21:18:31.327Z,21.10
2023-09-16T21:22:19.357Z,19.90
2023-09-16T21:26:07.920Z,22.50
2023-09-16T21:29:56.764Z,21.60
2023-09-16T21:33:45.628Z,22.60
2023-09-16T21:37:40.857Z,19.10
2023-09-16T21:41:35.928Z,18.40
2023-09-16T21:45:27.135Z,17.90
2023-09-16T21:49:24.276Z,18.20
2023-09-16T21:53:20.761Z,16.00
2023-09-16T21:57:28.876Z,14.80
2023-09-16T22:01:21.333Z,14.00
2023-09-16T22:05:11.631Z,13.30
2023-09-16T22:09:40.916Z,14.70
2023-09-16T22:13:29.146Z,13.40
2023-09-16T22:17:23.880Z,13.70
2023-09-16T22:21:16.090Z,15.70
2023-09-16T22:25:19.180Z,16.70
2023-09-16T22:29:10.642Z,14.30
2023-09-16T22:33:18.186Z,13.40
2023-09-16T22:37:08.614Z,15.50
2023-09-16T22:41:16.699Z,15.70
2023-09-16T22:45:07.994Z,15.30
2023-09-16T22:48:58.576Z,17.70
2023-09-16T22:52:46.802Z,17.60
2023-09-16T22:56:36.127Z,17.30
2023-09-16T23:00:17.469Z,15.90
2023-09-16T23:04:07.395Z,16.20
2023-09-16T23:07:57.127Z,14.90
2023-09-16T23:12:05.508Z,15.90
2023-09-16T23:15:57.202Z,15.60
2023-09-16T23:19:29.593Z,16.20
2023-09-16T23:23:11.020Z,16.40
2023-09-16T23:27:01.857Z,15.20
2023-09-16T23:30:51.195Z,14.80
2023-09-16T23:34:39.229Z,14.60
2023-09-16T23:38:27.676Z,15.10
2023-09-16T23:42:00.909Z,14.50
2023-09-16T23:45:49.802Z,14.90
2023-09-16T23:49:39.342Z,13.90
2023-09-16T23:53:28.534Z,15.10
2023-09-16T23:56:58.284Z,13.60
